Tahlequah, OK (74464)

5:43 PM CDT on May 22, 2017 (GMT -0500)
Southridge2 | | Change Station
Active Advisory: Flood Advisory Active Notice: Flood Advisory

Elev 825 ft 35.88 °N, 94.98 °W | Updated 27 seconds ago

Scattered Clouds
Scattered Clouds
76.8 °F
Feels Like 77 °F
N
0.4
Wind Variable Wind from WNW
Gusts 2.5 mph

Today
High -- | Low -- °F
--% Chance of Precip.
Yesterday
High -- | Low -- °F
Precip. -- in
Pressure 29.97 in
Visibility 10.0 miles
Clouds Scattered Clouds 5500 ft
Heat Index 77 °F
Dew Point 36 °F
Humidity 23%
Rainfall 0.00 in
Snow Depth Not available.
6:09 AM 8:24 PM
Waning Crescent, 12% visible
METAR KTQH 222235Z AUTO 20003KT 10SM SCT055 23/12 A2997 RMK AO2
Pressure 29.97 in
Visibility 10.0 miles
Clouds Scattered Clouds 5500 ft
Heat Index 77 °F
Dew Point 36 °F
Humidity 23%
Rainfall 0.00 in
Snow Depth Not available.
6:09 AM 8:24 PM
Waning Crescent, 12% visible
METAR KTQH 222235Z AUTO 20003KT 10SM SCT055 23/12 A2997 RMK AO2

Get Your Daily Forecast Email!

Thanks for signing up!

Be on the lookout for a verification email in your inbox.

You'll start receiving severe weather alerts in your inbox..

×

10-Day Weather Forecast

Almanac

Astronomy

May. 22, 2017 Rise Set
Actual Time
Civil Twilight
Nautical Twilight
Astronomical Twilight
Moon
Length of Visible Light
Length of Day
Tomorrow will be .
, % of the Moon is Illuminated

Today's Extremes

State Highs State Lows

Community

WunderPhotos

Category 6

Welcome to Category 6. This is the collective home for Weather Underground's featured writeups by Dr. Jeff Masters (right), Bob Henson (left), Chris Burt, and other regular contributors.

Nearby

Air Quality

  Air Quality AQ Index Pollutant
Not available.

Snow Depth

Station Depth Elevation

Earthquake Activity

City Distance Mag. Time & Date
Minimum magnitude displayed is 2.5.

Coastal Water Temperatures

Place Temperature

Stations

Nearby Weather Stations

Station Location Temp. Windchill Dew Point Humidity Wind Precip. Elev Updated Type
                   

Watches & Warnings

Flood Advisory
Issued: 2:53 PM CDT May. 22, 2017 – National Weather Service

The flood advisory continues for
the Illinois River near Tahlequah
* until late tonight, or until the advisory is cancelled.
* At 2:00 PM Monday, the stage was 9.2 feet.
* Action stage is 9.0 feet.
* Flood stage is 11.0 feet.
* Forecast... the river is below flood stage and will continue to fall
but will remain above action stage.
* Impact... at 9.0 feet, no flooding occurs but all recreational
floating along the Illinois River ceases at and above 9.5 feet.


Lat... Lon 3612 9487 3606 9481 3576 9487 3576 9496 3603 9496